Sea Cloud II — 9HUE6 — position and weather

sailwx.info

Track history (hours):
 
Tides and Currents Weather Stations Pressure Air Temp Water Temp Dewpoint Dewpoint Depression Visibility Wind Speed Wind Dir Waves Ship Positions

Sea Cloud II

Ship's website: http://www.seacloud.com/en/the-ships/sea-cloud-ii.html

Last reported at 2014-Aug-30 11:33 UTC. Time now 2014-Aug-30 12:30 UTC.
Position N 43°20' W 003°01'.

Length 117 m; draft 5.8 m.

Type: Passenger vessel. MMSI: 248953000.

Date/timePositionNaut miles runAvg speedWind from/ knotsBaromVisibWave heightAir tempDewpointWater temp
2014-Aug-30 11:33N 43°20' W 003°01'0 0.0
2014-Aug-30 10:33N 43°20' W 003°01'0 0.0
2014-Aug-30 09:33N 43°20' W 003°01'0 0.0
2014-Aug-30 08:33N 43°20' W 003°01'0 0.0
2014-Aug-30 07:33N 43°20' W 003°01'0 0.0
2014-Aug-30 06:33N 43°20' W 003°01'0 0.0
2014-Aug-30 05:33N 43°20' W 003°01'3 3.2
2014-Aug-30 04:33N 43°23' W 003°04'7 7.0
2014-Aug-30 03:33N 43°28' W 003°11'7 6.7
2014-Aug-30 02:33N 43°32' W 003°18'5 5.1
2014-Aug-30 01:33N 43°36' W 003°22'3 3.4
2014-Aug-30 00:33N 43°36' W 003°18'3 3.4
2014-Aug-29 23:33N 43°36' W 003°13'4 3.5
2014-Aug-29 22:33N 43°36' W 003°08'3 3.4
2014-Aug-29 21:33N 43°37' W 003°03'4 3.6
2014-Aug-29 20:33N 43°37' W 002°58'5 4.6
2014-Aug-29 19:33N 43°40' W 002°53'6 6.3
2014-Aug-29 18:33N 43°45' W 002°49'6 6.4
2014-Aug-29 17:33N 43°51' W 002°44'6 6.4
2014-Aug-29 16:33N 43°56' W 002°39'  
2014-Aug-26 17:05N 46°17' W 002°05'4 7.1
2014-Aug-26 16:33N 46°20' W 002°07'6 6.1
2014-Aug-26 15:33N 46°25' W 002°12'5 5.2
2014-Aug-26 14:33N 46°29' W 002°17'6 5.3
2014-Aug-26 13:27N 46°33' W 002°23'53 6.6
2014-Aug-26 05:23N 47°20' W 003°01'7 0.4
2014-Aug-25 11:12N 47°24' W 003°09'6 9.4
2014-Aug-25 10:32N 47°30' W 003°11'4 2.9
2014-Aug-25 09:15N 47°33' W 003°15'2 3.2
2014-Aug-25 08:33N 47°35' W 003°17'7 7.3
2014-Aug-25 07:33N 47°40' W 003°24'0 0.0
2014-Aug-25 06:33N 47°40' W 003°24'0 0.0
2014-Aug-25 05:33N 47°40' W 003°24'1 0.5
2014-Aug-25 04:33N 47°40' W 003°25'5 4.7
2014-Aug-25 03:33N 47°41' W 003°32'6 5.8
2014-Aug-25 02:33N 47°39' W 003°40'46 4.6
2014-Aug-24 16:33N 47°48' W 004°47'4 4.5
2014-Aug-24 15:33N 47°49' W 004°54'10 1.2
2014-Aug-24 07:23N 47°55' W 005°05'5 4.3
2014-Aug-24 06:07N 48°00' W 005°05'2 4.3
2014-Aug-24 05:33N 48°01' W 005°08'  
2014-Aug-21 19:33N 51°36' W 008°05'1212.0
2014-Aug-21 18:33N 51°46' W 008°15'5 5.1
2014-Aug-21 17:32N 51°51' W 008°18'0 0.0
2014-Aug-21 16:32N 51°51' W 008°18'0 0.0
2014-Aug-21 15:32N 51°51' W 008°18'0 0.0
2014-Aug-21 14:32N 51°51' W 008°18'0 0.1
2014-Aug-21 13:32N 51°51' W 008°18'0 0.0
2014-Aug-21 12:32N 51°51' W 008°18'1 1.0
2014-Aug-21 11:33N 51°51' W 008°17'9 8.5
2014-Aug-21 10:33N 51°45' W 008°07'4 4.2
2014-Aug-21 09:33N 51°45' W 008°00'5 5.2
2014-Aug-21 08:33N 51°40' W 007°59'6 5.7
2014-Aug-21 07:33N 51°34' W 007°58'7 6.8
2014-Aug-21 06:33N 51°37' W 007°48'1111.2
2014-Aug-21 05:33N 51°43' W 007°32'1210.3
2014-Aug-21 04:23N 51°48' W 007°15'910.3
2014-Aug-21 03:31N 51°52' W 007°02'1010.3
2014-Aug-21 02:33N 51°57' W 006°47'1110.6
2014-Aug-21 01:33N 52°01' W 006°32'1111.1
2014-Aug-21 00:33N 52°06' W 006°16'1111.3
2014-Aug-20 23:33N 52°15' W 006°05'1312.7
2014-Aug-20 22:33N 52°28' W 005°60'  
Track history (hours):
 
Tides and Currents Weather Stations Pressure Air Temp Water Temp Dewpoint Dewpoint Depression Visibility Wind Speed Wind Dir Waves Ship Positions

Sea Cloud II

Ship's website: http://www.seacloud.com/en/the-ships/sea-cloud-ii.html

Last reported at 2014-Aug-30 11:33 UTC. Time now 2014-Aug-30 12:30 UTC.
Position N 43°20' W 003°01'.

Length 117 m; draft 5.8 m.

Type: Passenger vessel. MMSI: 248953000.

Date/timePositionNaut miles runAvg speedWind from/ knotsBaromVisibWave heightAir tempDewpointWater temp
2014-Aug-30 11:33N 43°20' W 003°01'0 0.0
2014-Aug-30 10:33N 43°20' W 003°01'0 0.0
2014-Aug-30 09:33N 43°20' W 003°01'0 0.0
2014-Aug-30 08:33N 43°20' W 003°01'0 0.0
2014-Aug-30 07:33N 43°20' W 003°01'0 0.0
2014-Aug-30 06:33N 43°20' W 003°01'0 0.0
2014-Aug-30 05:33N 43°20' W 003°01'3 3.2
2014-Aug-30 04:33N 43°23' W 003°04'7 7.0
2014-Aug-30 03:33N 43°28' W 003°11'7 6.7
2014-Aug-30 02:33N 43°32' W 003°18'5 5.1
2014-Aug-30 01:33N 43°36' W 003°22'3 3.4
2014-Aug-30 00:33N 43°36' W 003°18'3 3.4
2014-Aug-29 23:33N 43°36' W 003°13'4 3.5
2014-Aug-29 22:33N 43°36' W 003°08'3 3.4
2014-Aug-29 21:33N 43°37' W 003°03'4 3.6
2014-Aug-29 20:33N 43°37' W 002°58'5 4.6
2014-Aug-29 19:33N 43°40' W 002°53'6 6.3
2014-Aug-29 18:33N 43°45' W 002°49'6 6.4
2014-Aug-29 17:33N 43°51' W 002°44'6 6.4
2014-Aug-29 16:33N 43°56' W 002°39'  
2014-Aug-26 17:05N 46°17' W 002°05'4 7.1
2014-Aug-26 16:33N 46°20' W 002°07'6 6.1
2014-Aug-26 15:33N 46°25' W 002°12'5 5.2
2014-Aug-26 14:33N 46°29' W 002°17'6 5.3
2014-Aug-26 13:27N 46°33' W 002°23'53 6.6
2014-Aug-26 05:23N 47°20' W 003°01'7 0.4
2014-Aug-25 11:12N 47°24' W 003°09'6 9.4
2014-Aug-25 10:32N 47°30' W 003°11'4 2.9
2014-Aug-25 09:15N 47°33' W 003°15'2 3.2
2014-Aug-25 08:33N 47°35' W 003°17'7 7.3
2014-Aug-25 07:33N 47°40' W 003°24'0 0.0
2014-Aug-25 06:33N 47°40' W 003°24'0 0.0
2014-Aug-25 05:33N 47°40' W 003°24'1 0.5
2014-Aug-25 04:33N 47°40' W 003°25'5 4.7
2014-Aug-25 03:33N 47°41' W 003°32'6 5.8
2014-Aug-25 02:33N 47°39' W 003°40'46 4.6
2014-Aug-24 16:33N 47°48' W 004°47'4 4.5
2014-Aug-24 15:33N 47°49' W 004°54'10 1.2
2014-Aug-24 07:23N 47°55' W 005°05'5 4.3
2014-Aug-24 06:07N 48°00' W 005°05'2 4.3
2014-Aug-24 05:33N 48°01' W 005°08'  
2014-Aug-21 19:33N 51°36' W 008°05'1212.0
2014-Aug-21 18:33N 51°46' W 008°15'5 5.1
2014-Aug-21 17:32N 51°51' W 008°18'0 0.0
2014-Aug-21 16:32N 51°51' W 008°18'0 0.0
2014-Aug-21 15:32N 51°51' W 008°18'0 0.0
2014-Aug-21 14:32N 51°51' W 008°18'0 0.1
2014-Aug-21 13:32N 51°51' W 008°18'0 0.0
2014-Aug-21 12:32N 51°51' W 008°18'1 1.0
2014-Aug-21 11:33N 51°51' W 008°17'9 8.5
2014-Aug-21 10:33N 51°45' W 008°07'4 4.2
2014-Aug-21 09:33N 51°45' W 008°00'5 5.2
2014-Aug-21 08:33N 51°40' W 007°59'6 5.7
2014-Aug-21 07:33N 51°34' W 007°58'7 6.8
2014-Aug-21 06:33N 51°37' W 007°48'1111.2
2014-Aug-21 05:33N 51°43' W 007°32'1210.3
2014-Aug-21 04:23N 51°48' W 007°15'910.3
2014-Aug-21 03:31N 51°52' W 007°02'1010.3
2014-Aug-21 02:33N 51°57' W 006°47'1110.6
2014-Aug-21 01:33N 52°01' W 006°32'1111.1
2014-Aug-21 00:33N 52°06' W 006°16'1111.3
2014-Aug-20 23:33N 52°15' W 006°05'1312.7
2014-Aug-20 22:33N 52°28' W 005°60'  

Dump ship's entire track history